sensor_id;sensor_type;location;lat;lon;timestamp;temperature;humidity
16823;DHT22;8528;49.976;11.858;2023-04-07T00:01:29;-1.90;99.90
16823;DHT22;8528;49.976;11.858;2023-04-07T00:03:57;-2.00;99.90
16823;DHT22;8528;49.976;11.858;2023-04-07T00:06:25;-1.90;99.90
16823;DHT22;8528;49.976;11.858;2023-04-07T00:08:53;-2.00;99.90
16823;DHT22;8528;49.976;11.858;2023-04-07T00:11:20;-2.00;99.90
16823;DHT22;8528;49.976;11.858;2023-04-07T00:13:47;-2.00;99.90
16823;DHT22;8528;49.976;11.858;2023-04-07T00:16:13;-2.00;99.90
16823;DHT22;8528;49.976;11.858;2023-04-07T00:18:41;-2.10;99.90
16823;DHT22;8528;49.976;11.858;2023-04-07T00:21:07;-2.00;99.90
16823;DHT22;8528;49.976;11.858;2023-04-07T00:23:34;-1.90;99.90
16823;DHT22;8528;49.976;11.858;2023-04-07T00:26:01;-2.00;99.90
16823;DHT22;8528;49.976;11.858;2023-04-07T00:28:28;-2.00;99.90
16823;DHT22;8528;49.976;11.858;2023-04-07T00:30:55;-2.00;99.90
16823;DHT22;8528;49.976;11.858;2023-04-07T00:33:22;-2.00;99.90
16823;DHT22;8528;49.976;11.858;2023-04-07T00:35:49;-2.10;99.90
16823;DHT22;8528;49.976;11.858;2023-04-07T00:38:16;-2.10;99.90
16823;DHT22;8528;49.976;11.858;2023-04-07T00:40:43;-2.20;99.90
16823;DHT22;8528;49.976;11.858;2023-04-07T00:43:10;-2.10;99.90
16823;DHT22;8528;49.976;11.858;2023-04-07T00:45:36;-2.10;99.90
16823;DHT22;8528;49.976;11.858;2023-04-07T00:48:04;-2.10;99.90
16823;DHT22;8528;49.976;11.858;2023-04-07T00:50:31;-2.20;99.90
16823;DHT22;8528;49.976;11.858;2023-04-07T00:52:58;-2.30;99.90
16823;DHT22;8528;49.976;11.858;2023-04-07T00:55:25;-2.30;99.90
16823;DHT22;8528;49.976;11.858;2023-04-07T00:57:52;-2.30;99.90
16823;DHT22;8528;49.976;11.858;2023-04-07T01:00:19;-2.30;99.90
16823;DHT22;8528;49.976;11.858;2023-04-07T01:02:57;-2.30;99.90
16823;DHT22;8528;49.976;11.858;2023-04-07T01:06:09;-2.30;99.90
16823;DHT22;8528;49.976;11.858;2023-04-07T01:08:32;-2.30;99.90
16823;DHT22;8528;49.976;11.858;2023-04-07T01:13:49;-2.40;99.90
16823;DHT22;8528;49.976;11.858;2023-04-07T01:16:23;-2.50;99.90
16823;DHT22;8528;49.976;11.858;2023-04-07T01:18:54;-2.50;99.90
16823;DHT22;8528;49.976;11.858;2023-04-07T01:21:22;-2.50;99.90
16823;DHT22;8528;49.976;11.858;2023-04-07T01:24:18;-2.60;99.90
16823;DHT22;8528;49.976;11.858;2023-04-07T01:26:50;-2.50;99.90
16823;DHT22;8528;49.976;11.858;2023-04-07T01:29:29;-2.70;99.90
16823;DHT22;8528;49.976;11.858;2023-04-07T01:32:01;-2.60;99.90
16823;DHT22;8528;49.976;11.858;2023-04-07T01:34:30;-2.60;99.90
16823;DHT22;8528;49.976;11.858;2023-04-07T01:36:59;-2.70;99.90
16823;DHT22;8528;49.976;11.858;2023-04-07T01:39:27;-2.70;99.90
16823;DHT22;8528;49.976;11.858;2023-04-07T01:41:55;-2.70;99.90
16823;DHT22;8528;49.976;11.858;2023-04-07T01:44:23;-2.70;99.90
16823;DHT22;8528;49.976;11.858;2023-04-07T01:46:53;-2.80;99.90
16823;DHT22;8528;49.976;11.858;2023-04-07T01:49:20;-2.80;99.90
16823;DHT22;8528;49.976;11.858;2023-04-07T01:51:48;-2.80;99.90
16823;DHT22;8528;49.976;11.858;2023-04-07T01:54:17;-2.80;99.90
16823;DHT22;8528;49.976;11.858;2023-04-07T01:56:44;-2.90;99.90
16823;DHT22;8528;49.976;11.858;2023-04-07T01:59:12;-2.80;99.90
16823;DHT22;8528;49.976;11.858;2023-04-07T02:01:39;-2.80;99.90
16823;DHT22;8528;49.976;11.858;2023-04-07T02:04:20;-2.90;99.90
16823;DHT22;8528;49.976;11.858;2023-04-07T02:06:58;-2.90;99.90
16823;DHT22;8528;49.976;11.858;2023-04-07T02:09:28;-2.90;99.90
16823;DHT22;8528;49.976;11.858;2023-04-07T02:11:58;-2.90;99.90
16823;DHT22;8528;49.976;11.858;2023-04-07T02:14:26;-2.90;99.90
16823;DHT22;8528;49.976;11.858;2023-04-07T02:16:55;-3.00;99.90
16823;DHT22;8528;49.976;11.858;2023-04-07T02:19:22;-3.00;99.90
16823;DHT22;8528;49.976;11.858;2023-04-07T02:21:50;-3.10;99.90
16823;DHT22;8528;49.976;11.858;2023-04-07T02:24:19;-3.00;99.90
16823;DHT22;8528;49.976;11.858;2023-04-07T02:26:49;-3.00;99.90
16823;DHT22;8528;49.976;11.858;2023-04-07T02:29:16;-3.00;99.90
16823;DHT22;8528;49.976;11.858;2023-04-07T02:31:43;-3.10;99.90
16823;DHT22;8528;49.976;11.858;2023-04-07T02:34:10;-3.10;99.90
16823;DHT22;8528;49.976;11.858;2023-04-07T02:36:37;-3.10;99.90
16823;DHT22;8528;49.976;11.858;2023-04-07T02:39:04;-3.10;99.90
16823;DHT22;8528;49.976;11.858;2023-04-07T02:41:31;-3.10;99.90
16823;DHT22;8528;49.976;11.858;2023-04-07T02:43:58;-3.10;99.90
16823;DHT22;8528;49.976;11.858;2023-04-07T02:46:24;-3.20;99.90
16823;DHT22;8528;49.976;11.858;2023-04-07T02:48:52;-3.10;99.90
16823;DHT22;8528;49.976;11.858;2023-04-07T02:51:18;-3.20;99.90
16823;DHT22;8528;49.976;11.858;2023-04-07T02:53:46;-3.20;99.90
16823;DHT22;8528;49.976;11.858;2023-04-07T02:56:14;-3.20;99.90
16823;DHT22;8528;49.976;11.858;2023-04-07T02:58:41;-3.20;99.90
16823;DHT22;8528;49.976;11.858;2023-04-07T03:01:09;-3.20;99.90
16823;DHT22;8528;49.976;11.858;2023-04-07T03:03:36;-3.20;99.90
16823;DHT22;8528;49.976;11.858;2023-04-07T03:06:02;-3.20;99.90
16823;DHT22;8528;49.976;11.858;2023-04-07T03:08:29;-3.20;99.90
16823;DHT22;8528;49.976;11.858;2023-04-07T03:10:56;-3.20;99.90
16823;DHT22;8528;49.976;11.858;2023-04-07T03:13:23;-3.30;99.90
16823;DHT22;8528;49.976;11.858;2023-04-07T03:15:50;-3.30;99.90
16823;DHT22;8528;49.976;11.858;2023-04-07T03:18:17;-3.30;99.90
16823;DHT22;8528;49.976;11.858;2023-04-07T03:20:44;-3.30;99.90
16823;DHT22;8528;49.976;11.858;2023-04-07T03:23:13;-3.30;99.90
16823;DHT22;8528;49.976;11.858;2023-04-07T03:25:40;-3.40;99.90
16823;DHT22;8528;49.976;11.858;2023-04-07T03:28:07;-3.40;99.90
16823;DHT22;8528;49.976;11.858;2023-04-07T03:30:34;-3.40;99.90
16823;DHT22;8528;49.976;11.858;2023-04-07T03:33:01;-3.40;99.90
16823;DHT22;8528;49.976;11.858;2023-04-07T03:35:28;-3.40;99.90
16823;DHT22;8528;49.976;11.858;2023-04-07T03:37:54;-3.50;99.90
16823;DHT22;8528;49.976;11.858;2023-04-07T03:40:21;-3.50;99.90
16823;DHT22;8528;49.976;11.858;2023-04-07T03:42:48;-3.40;99.90
16823;DHT22;8528;49.976;11.858;2023-04-07T03:45:15;-3.50;99.90
16823;DHT22;8528;49.976;11.858;2023-04-07T03:47:43;-3.50;99.90
16823;DHT22;8528;49.976;11.858;2023-04-07T03:50:09;-3.50;99.90
16823;DHT22;8528;49.976;11.858;2023-04-07T03:52:37;-3.50;99.90
16823;DHT22;8528;49.976;11.858;2023-04-07T03:55:04;-3.60;99.90
16823;DHT22;8528;49.976;11.858;2023-04-07T03:57:31;-3.60;99.90
16823;DHT22;8528;49.976;11.858;2023-04-07T03:59:58;-3.60;99.90
16823;DHT22;8528;49.976;11.858;2023-04-07T04:02:25;-3.60;99.90
16823;DHT22;8528;49.976;11.858;2023-04-07T04:04:52;-3.70;99.90
16823;DHT22;8528;49.976;11.858;2023-04-07T04:07:19;-3.70;99.90
16823;DHT22;8528;49.976;11.858;2023-04-07T04:09:46;-3.70;99.90
16823;DHT22;8528;49.976;11.858;2023-04-07T04:12:13;-3.70;99.90
16823;DHT22;8528;49.976;11.858;2023-04-07T04:14:40;-3.70;99.90
16823;DHT22;8528;49.976;11.858;2023-04-07T04:17:07;-3.70;99.90
16823;DHT22;8528;49.976;11.858;2023-04-07T04:19:34;-3.70;99.90
16823;DHT22;8528;49.976;11.858;2023-04-07T04:22:00;-3.70;99.90
16823;DHT22;8528;49.976;11.858;2023-04-07T04:24:27;-3.80;99.90
16823;DHT22;8528;49.976;11.858;2023-04-07T04:26:54;-3.80;99.90
16823;DHT22;8528;49.976;11.858;2023-04-07T04:29:22;-3.80;99.90
16823;DHT22;8528;49.976;11.858;2023-04-07T04:31:48;-3.80;99.90
16823;DHT22;8528;49.976;11.858;2023-04-07T04:34:15;-3.80;99.90
16823;DHT22;8528;49.976;11.858;2023-04-07T04:36:43;-3.80;99.90
16823;DHT22;8528;49.976;11.858;2023-04-07T04:39:10;-3.80;99.90
16823;DHT22;8528;49.976;11.858;2023-04-07T04:41:37;-3.80;99.90
16823;DHT22;8528;49.976;11.858;2023-04-07T04:44:04;-3.80;99.90
16823;DHT22;8528;49.976;11.858;2023-04-07T04:46:30;-3.80;99.90
16823;DHT22;8528;49.976;11.858;2023-04-07T04:48:57;-3.80;99.90
16823;DHT22;8528;49.976;11.858;2023-04-07T04:51:24;-3.80;99.90
16823;DHT22;8528;49.976;11.858;2023-04-07T04:53:52;-3.80;99.90
16823;DHT22;8528;49.976;11.858;2023-04-07T04:56:19;-3.70;99.90
16823;DHT22;8528;49.976;11.858;2023-04-07T04:58:46;-3.70;99.90
16823;DHT22;8528;49.976;11.858;2023-04-07T05:01:13;-3.70;99.90
16823;DHT22;8528;49.976;11.858;2023-04-07T05:03:41;-3.70;99.90
16823;DHT22;8528;49.976;11.858;2023-04-07T05:06:08;-3.70;99.90
16823;DHT22;8528;49.976;11.858;2023-04-07T05:08:35;-3.60;99.90
16823;DHT22;8528;49.976;11.858;2023-04-07T05:11:02;-3.60;99.90
16823;DHT22;8528;49.976;11.858;2023-04-07T05:13:29;-3.50;99.90
16823;DHT22;8528;49.976;11.858;2023-04-07T05:15:56;-3.40;99.90
16823;DHT22;8528;49.976;11.858;2023-04-07T05:18:23;-3.40;99.90
16823;DHT22;8528;49.976;11.858;2023-04-07T05:20:51;-3.30;99.90
16823;DHT22;8528;49.976;11.858;2023-04-07T05:23:17;-3.10;99.90
16823;DHT22;8528;49.976;11.858;2023-04-07T05:25:44;-2.90;99.90
16823;DHT22;8528;49.976;11.858;2023-04-07T05:28:11;-2.40;99.90
16823;DHT22;8528;49.976;11.858;2023-04-07T05:30:38;-1.80;99.90
16823;DHT22;8528;49.976;11.858;2023-04-07T05:33:05;-0.90;99.90
16823;DHT22;8528;49.976;11.858;2023-04-07T05:35:32;-0.10;99.90
16823;DHT22;8528;49.976;11.858;2023-04-07T05:37:59;0.80;99.90
16823;DHT22;8528;49.976;11.858;2023-04-07T05:40:26;1.70;99.90
16823;DHT22;8528;49.976;11.858;2023-04-07T05:42:52;2.40;99.90
16823;DHT22;8528;49.976;11.858;2023-04-07T05:45:19;3.20;99.90
16823;DHT22;8528;49.976;11.858;2023-04-07T05:47:46;4.20;99.90
16823;DHT22;8528;49.976;11.858;2023-04-07T05:50:16;4.80;99.90
16823;DHT22;8528;49.976;11.858;2023-04-07T05:52:43;5.70;99.90
16823;DHT22;8528;49.976;11.858;2023-04-07T05:55:10;6.70;99.90
16823;DHT22;8528;49.976;11.858;2023-04-07T05:57:37;7.60;95.40
16823;DHT22;8528;49.976;11.858;2023-04-07T06:00:04;8.30;92.50
16823;DHT22;8528;49.976;11.858;2023-04-07T06:02:31;8.90;90.10
16823;DHT22;8528;49.976;11.858;2023-04-07T06:04:58;9.70;84.80
16823;DHT22;8528;49.976;11.858;2023-04-07T06:07:25;10.40;80.30
16823;DHT22;8528;49.976;11.858;2023-04-07T06:09:52;11.20;76.30
16823;DHT22;8528;49.976;11.858;2023-04-07T06:12:20;11.90;71.30
16823;DHT22;8528;49.976;11.858;2023-04-07T06:14:52;12.70;67.40
16823;DHT22;8528;49.976;11.858;2023-04-07T06:17:19;13.40;62.70
16823;DHT22;8528;49.976;11.858;2023-04-07T06:19:46;14.00;59.30
16823;DHT22;8528;49.976;11.858;2023-04-07T06:22:13;14.70;57.10
16823;DHT22;8528;49.976;11.858;2023-04-07T06:24:40;15.20;54.90
16823;DHT22;8528;49.976;11.858;2023-04-07T06:27:07;15.70;53.40
16823;DHT22;8528;49.976;11.858;2023-04-07T06:29:34;16.10;52.80
16823;DHT22;8528;49.976;11.858;2023-04-07T06:32:02;16.70;51.70
16823;DHT22;8528;49.976;11.858;2023-04-07T06:34:29;17.60;49.10
16823;DHT22;8528;49.976;11.858;2023-04-07T06:36:56;17.90;48.20
16823;DHT22;8528;49.976;11.858;2023-04-07T06:39:26;18.40;47.00
16823;DHT22;8528;49.976;11.858;2023-04-07T06:41:53;18.70;46.30
16823;DHT22;8528;49.976;11.858;2023-04-07T06:44:19;18.90;45.50
16823;DHT22;8528;49.976;11.858;2023-04-07T06:46:46;19.00;45.30
16823;DHT22;8528;49.976;11.858;2023-04-07T06:49:16;19.60;43.40
16823;DHT22;8528;49.976;11.858;2023-04-07T06:51:43;20.50;42.10
16823;DHT22;8528;49.976;11.858;2023-04-07T06:54:09;21.30;39.80
16823;DHT22;8528;49.976;11.858;2023-04-07T06:56:41;21.40;39.40
16823;DHT22;8528;49.976;11.858;2023-04-07T06:59:08;21.40;38.80
16823;DHT22;8528;49.976;11.858;2023-04-07T07:01:35;22.10;37.40
16823;DHT22;8528;49.976;11.858;2023-04-07T07:04:04;22.30;36.90
16823;DHT22;8528;49.976;11.858;2023-04-07T07:06:33;22.60;36.40
16823;DHT22;8528;49.976;11.858;2023-04-07T07:09:00;23.10;36.40
16823;DHT22;8528;49.976;11.858;2023-04-07T07:11:28;24.00;35.60
16823;DHT22;8528;49.976;11.858;2023-04-07T07:13:56;24.00;35.40
16823;DHT22;8528;49.976;11.858;2023-04-07T07:16:23;24.30;34.40
16823;DHT22;8528;49.976;11.858;2023-04-07T07:18:49;24.70;33.20
16823;DHT22;8528;49.976;11.858;2023-04-07T07:21:17;24.70;32.00
16823;DHT22;8528;49.976;11.858;2023-04-07T07:23:45;24.60;31.00
16823;DHT22;8528;49.976;11.858;2023-04-07T07:26:12;23.70;31.10
16823;DHT22;8528;49.976;11.858;2023-04-07T07:28:39;23.00;32.70
16823;DHT22;8528;49.976;11.858;2023-04-07T07:31:12;22.90;32.40
16823;DHT22;8528;49.976;11.858;2023-04-07T07:33:41;23.40;32.60
16823;DHT22;8528;49.976;11.858;2023-04-07T07:36:09;23.40;31.80
16823;DHT22;8528;49.976;11.858;2023-04-07T07:38:37;23.30;30.70
16823;DHT22;8528;49.976;11.858;2023-04-07T07:41:05;23.60;31.10
16823;DHT22;8528;49.976;11.858;2023-04-07T07:43:32;23.60;30.60
16823;DHT22;8528;49.976;11.858;2023-04-07T07:46:00;23.70;30.40
16823;DHT22;8528;49.976;11.858;2023-04-07T07:48:27;23.60;30.20
16823;DHT22;8528;49.976;11.858;2023-04-07T07:50:54;22.90;30.60
16823;DHT22;8528;49.976;11.858;2023-04-07T07:53:22;23.00;31.20
16823;DHT22;8528;49.976;11.858;2023-04-07T07:55:49;22.00;32.30
16823;DHT22;8528;49.976;11.858;2023-04-07T07:58:16;22.60;32.10
16823;DHT22;8528;49.976;11.858;2023-04-07T08:00:43;23.40;30.80
16823;DHT22;8528;49.976;11.858;2023-04-07T08:03:10;23.90;30.00
16823;DHT22;8528;49.976;11.858;2023-04-07T08:05:37;25.20;29.10
16823;DHT22;8528;49.976;11.858;2023-04-07T08:08:04;24.70;28.90
16823;DHT22;8528;49.976;11.858;2023-04-07T08:10:31;25.00;28.10
16823;DHT22;8528;49.976;11.858;2023-04-07T08:12:58;25.20;28.10
16823;DHT22;8528;49.976;11.858;2023-04-07T08:15:25;24.50;28.70
16823;DHT22;8528;49.976;11.858;2023-04-07T08:17:52;24.40;28.70
16823;DHT22;8528;49.976;11.858;2023-04-07T08:20:21;22.10;30.00
16823;DHT22;8528;49.976;11.858;2023-04-07T08:22:49;21.20;32.00
16823;DHT22;8528;49.976;11.858;2023-04-07T08:25:16;20.60;32.80
16823;DHT22;8528;49.976;11.858;2023-04-07T08:27:43;19.70;34.00
16823;DHT22;8528;49.976;11.858;2023-04-07T08:30:10;19.60;34.20
16823;DHT22;8528;49.976;11.858;2023-04-07T08:32:43;19.90;34.10
16823;DHT22;8528;49.976;11.858;2023-04-07T08:35:10;20.80;33.30
16823;DHT22;8528;49.976;11.858;2023-04-07T08:37:38;22.30;31.20
16823;DHT22;8528;49.976;11.858;2023-04-07T08:40:05;21.70;31.10
16823;DHT22;8528;49.976;11.858;2023-04-07T08:42:33;21.40;31.80
16823;DHT22;8528;49.976;11.858;2023-04-07T08:45:05;20.20;33.00
16823;DHT22;8528;49.976;11.858;2023-04-07T08:47:34;19.80;33.60
16823;DHT22;8528;49.976;11.858;2023-04-07T08:50:05;20.50;33.00
16823;DHT22;8528;49.976;11.858;2023-04-07T08:55:03;23.20;30.00
16823;DHT22;8528;49.976;11.858;2023-04-07T08:57:32;25.00;28.80
16823;DHT22;8528;49.976;11.858;2023-04-07T09:00:01;25.70;27.70
16823;DHT22;8528;49.976;11.858;2023-04-07T09:02:34;24.40;28.40
16823;DHT22;8528;49.976;11.858;2023-04-07T09:05:06;23.80;29.60
16823;DHT22;8528;49.976;11.858;2023-04-07T09:07:35;24.90;28.50
16823;DHT22;8528;49.976;11.858;2023-04-07T09:10:03;23.90;29.00
16823;DHT22;8528;49.976;11.858;2023-04-07T09:12:31;24.70;27.90
16823;DHT22;8528;49.976;11.858;2023-04-07T09:14:59;25.70;27.60
16823;DHT22;8528;49.976;11.858;2023-04-07T09:17:27;26.70;26.30
16823;DHT22;8528;49.976;11.858;2023-04-07T09:19:59;26.50;26.50
16823;DHT22;8528;49.976;11.858;2023-04-07T09:25:32;26.70;24.70
16823;DHT22;8528;49.976;11.858;2023-04-07T09:28:01;26.00;25.10
16823;DHT22;8528;49.976;11.858;2023-04-07T09:30:32;27.60;24.50
16823;DHT22;8528;49.976;11.858;2023-04-07T09:33:00;28.60;24.60
16823;DHT22;8528;49.976;11.858;2023-04-07T09:35:27;27.80;24.30
16823;DHT22;8528;49.976;11.858;2023-04-07T09:38:03;27.80;25.40
16823;DHT22;8528;49.976;11.858;2023-04-07T09:40:30;28.90;23.50
16823;DHT22;8528;49.976;11.858;2023-04-07T09:42:58;26.40;24.20
16823;DHT22;8528;49.976;11.858;2023-04-07T09:45:30;26.10;24.90
16823;DHT22;8528;49.976;11.858;2023-04-07T09:48:20;26.80;24.70
16823;DHT22;8528;49.976;11.858;2023-04-07T09:50:47;26.20;24.60
16823;DHT22;8528;49.976;11.858;2023-04-07T09:53:15;27.40;24.50
16823;DHT22;8528;49.976;11.858;2023-04-07T09:55:43;27.90;23.70
16823;DHT22;8528;49.976;11.858;2023-04-07T09:58:13;28.50;24.00
16823;DHT22;8528;49.976;11.858;2023-04-07T10:00:41;29.00;24.50
16823;DHT22;8528;49.976;11.858;2023-04-07T10:03:08;30.20;23.80
16823;DHT22;8528;49.976;11.858;2023-04-07T10:05:36;31.20;23.20
16823;DHT22;8528;49.976;11.858;2023-04-07T10:08:05;32.20;22.20
16823;DHT22;8528;49.976;11.858;2023-04-07T10:10:32;32.50;22.40
16823;DHT22;8528;49.976;11.858;2023-04-07T10:13:03;32.80;22.90
16823;DHT22;8528;49.976;11.858;2023-04-07T10:15:31;33.80;23.50
16823;DHT22;8528;49.976;11.858;2023-04-07T10:17:59;34.20;23.90
16823;DHT22;8528;49.976;11.858;2023-04-07T10:20:27;33.70;23.20
16823;DHT22;8528;49.976;11.858;2023-04-07T10:22:55;33.50;23.30
16823;DHT22;8528;49.976;11.858;2023-04-07T10:25:28;33.40;22.90
16823;DHT22;8528;49.976;11.858;2023-04-07T10:28:00;33.10;22.50
16823;DHT22;8528;49.976;11.858;2023-04-07T10:30:31;31.70;22.40
16823;DHT22;8528;49.976;11.858;2023-04-07T10:32:59;31.30;23.90
16823;DHT22;8528;49.976;11.858;2023-04-07T10:35:26;31.20;23.60
16823;DHT22;8528;49.976;11.858;2023-04-07T10:38:10;30.90;24.10
16823;DHT22;8528;49.976;11.858;2023-04-07T10:40:37;30.90;23.80
16823;DHT22;8528;49.976;11.858;2023-04-07T10:43:06;31.20;23.70
16823;DHT22;8528;49.976;11.858;2023-04-07T10:48:15;31.70;23.20
16823;DHT22;8528;49.976;11.858;2023-04-07T10:50:44;30.10;23.10
16823;DHT22;8528;49.976;11.858;2023-04-07T10:53:12;28.20;24.50
16823;DHT22;8528;49.976;11.858;2023-04-07T10:55:41;25.60;25.40
16823;DHT22;8528;49.976;11.858;2023-04-07T11:03:55;19.30;32.60
16823;DHT22;8528;49.976;11.858;2023-04-07T11:06:23;20.90;30.30
16823;DHT22;8528;49.976;11.858;2023-04-07T11:08:52;22.80;28.50
16823;DHT22;8528;49.976;11.858;2023-04-07T11:11:34;24.50;27.50
16823;DHT22;8528;49.976;11.858;2023-04-07T11:14:03;25.70;26.00
16823;DHT22;8528;49.976;11.858;2023-04-07T11:16:36;26.80;25.40
16823;DHT22;8528;49.976;11.858;2023-04-07T11:19:03;26.90;24.80
16823;DHT22;8528;49.976;11.858;2023-04-07T11:21:30;26.80;24.60
16823;DHT22;8528;49.976;11.858;2023-04-07T11:23:57;27.70;24.30
16823;DHT22;8528;49.976;11.858;2023-04-07T11:26:24;28.20;23.70
16823;DHT22;8528;49.976;11.858;2023-04-07T11:28:53;29.30;23.00
16823;DHT22;8528;49.976;11.858;2023-04-07T11:31:30;29.80;23.10
16823;DHT22;8528;49.976;11.858;2023-04-07T11:34:02;30.40;23.10
16823;DHT22;8528;49.976;11.858;2023-04-07T11:36:37;30.70;22.40
16823;DHT22;8528;49.976;11.858;2023-04-07T11:39:08;30.20;23.10
16823;DHT22;8528;49.976;11.858;2023-04-07T11:41:48;28.70;23.40
16823;DHT22;8528;49.976;11.858;2023-04-07T11:44:15;27.20;24.60
16823;DHT22;8528;49.976;11.858;2023-04-07T11:46:56;24.50;26.50
16823;DHT22;8528;49.976;11.858;2023-04-07T11:49:25;22.10;28.20
16823;DHT22;8528;49.976;11.858;2023-04-07T11:54:26;21.20;30.30
16823;DHT22;8528;49.976;11.858;2023-04-07T11:56:53;21.30;30.40
16823;DHT22;8528;49.976;11.858;2023-04-07T11:59:23;21.00;29.70
16823;DHT22;8528;49.976;11.858;2023-04-07T12:01:51;20.20;30.20
16823;DHT22;8528;49.976;11.858;2023-04-07T12:04:22;20.30;30.00
16823;DHT22;8528;49.976;11.858;2023-04-07T12:06:49;19.70;30.30
16823;DHT22;8528;49.976;11.858;2023-04-07T12:09:35;19.20;31.40
16823;DHT22;8528;49.976;11.858;2023-04-07T12:12:05;18.70;32.30
16823;DHT22;8528;49.976;11.858;2023-04-07T12:14:34;18.80;33.20
16823;DHT22;8528;49.976;11.858;2023-04-07T12:17:01;19.60;33.50
16823;DHT22;8528;49.976;11.858;2023-04-07T12:19:31;20.10;31.80
16823;DHT22;8528;49.976;11.858;2023-04-07T12:22:03;20.50;32.00
16823;DHT22;8528;49.976;11.858;2023-04-07T12:24:30;20.60;32.20
16823;DHT22;8528;49.976;11.858;2023-04-07T12:26:58;21.10;30.60
16823;DHT22;8528;49.976;11.858;2023-04-07T12:29:25;21.30;31.20
16823;DHT22;8528;49.976;11.858;2023-04-07T12:31:52;21.30;30.20
16823;DHT22;8528;49.976;11.858;2023-04-07T12:34:19;21.00;29.90
16823;DHT22;8528;49.976;11.858;2023-04-07T12:36:46;20.10;30.20
16823;DHT22;8528;49.976;11.858;2023-04-07T12:39:14;20.50;30.50
16823;DHT22;8528;49.976;11.858;2023-04-07T12:41:42;22.10;30.90
16823;DHT22;8528;49.976;11.858;2023-04-07T12:44:10;23.50;30.60
16823;DHT22;8528;49.976;11.858;2023-04-07T12:46:37;24.40;28.90
16823;DHT22;8528;49.976;11.858;2023-04-07T12:49:04;24.70;27.00
16823;DHT22;8528;49.976;11.858;2023-04-07T12:51:32;25.30;26.10
16823;DHT22;8528;49.976;11.858;2023-04-07T12:53:59;25.10;26.70
16823;DHT22;8528;49.976;11.858;2023-04-07T12:56:27;25.40;27.40
16823;DHT22;8528;49.976;11.858;2023-04-07T12:58:54;25.80;27.30
16823;DHT22;8528;49.976;11.858;2023-04-07T13:01:21;24.60;27.80
16823;DHT22;8528;49.976;11.858;2023-04-07T13:03:48;23.60;27.00
16823;DHT22;8528;49.976;11.858;2023-04-07T13:06:15;23.20;27.80
16823;DHT22;8528;49.976;11.858;2023-04-07T13:08:43;22.70;28.70
16823;DHT22;8528;49.976;11.858;2023-04-07T13:11:10;22.60;28.00
16823;DHT22;8528;49.976;11.858;2023-04-07T13:13:37;22.50;28.10
16823;DHT22;8528;49.976;11.858;2023-04-07T13:16:04;22.10;28.50
16823;DHT22;8528;49.976;11.858;2023-04-07T13:18:31;21.90;30.10
16823;DHT22;8528;49.976;11.858;2023-04-07T13:20:58;22.00;29.30
16823;DHT22;8528;49.976;11.858;2023-04-07T13:23:45;21.80;28.70
16823;DHT22;8528;49.976;11.858;2023-04-07T13:26:12;21.20;30.60
16823;DHT22;8528;49.976;11.858;2023-04-07T13:28:39;21.00;31.30
16823;DHT22;8528;49.976;11.858;2023-04-07T13:31:06;20.70;31.00
16823;DHT22;8528;49.976;11.858;2023-04-07T13:33:34;20.20;30.80
16823;DHT22;8528;49.976;11.858;2023-04-07T13:36:01;19.40;31.20
16823;DHT22;8528;49.976;11.858;2023-04-07T13:38:27;18.70;32.00
16823;DHT22;8528;49.976;11.858;2023-04-07T13:40:55;18.40;33.00
16823;DHT22;8528;49.976;11.858;2023-04-07T13:43:21;18.30;34.00
16823;DHT22;8528;49.976;11.858;2023-04-07T13:45:48;18.20;33.10
16823;DHT22;8528;49.976;11.858;2023-04-07T13:48:16;18.20;34.00
16823;DHT22;8528;49.976;11.858;2023-04-07T13:50:43;18.00;33.30
16823;DHT22;8528;49.976;11.858;2023-04-07T13:53:10;17.70;34.30
16823;DHT22;8528;49.976;11.858;2023-04-07T13:55:37;17.60;34.60
16823;DHT22;8528;49.976;11.858;2023-04-07T13:58:05;17.80;34.00
16823;DHT22;8528;49.976;11.858;2023-04-07T14:00:31;18.00;33.10
16823;DHT22;8528;49.976;11.858;2023-04-07T14:03:00;18.30;34.50
16823;DHT22;8528;49.976;11.858;2023-04-07T14:05:28;18.60;33.60
16823;DHT22;8528;49.976;11.858;2023-04-07T14:07:55;18.20;32.20
16823;DHT22;8528;49.976;11.858;2023-04-07T14:10:22;18.00;33.70
16823;DHT22;8528;49.976;11.858;2023-04-07T14:12:49;17.70;34.60
16823;DHT22;8528;49.976;11.858;2023-04-07T14:15:16;17.60;34.00
16823;DHT22;8528;49.976;11.858;2023-04-07T14:17:43;17.90;33.80
16823;DHT22;8528;49.976;11.858;2023-04-07T14:20:11;17.80;33.70
16823;DHT22;8528;49.976;11.858;2023-04-07T14:22:38;17.60;35.50
16823;DHT22;8528;49.976;11.858;2023-04-07T14:25:05;17.40;34.80
16823;DHT22;8528;49.976;11.858;2023-04-07T14:27:32;17.20;34.50
16823;DHT22;8528;49.976;11.858;2023-04-07T14:29:59;16.70;35.70
16823;DHT22;8528;49.976;11.858;2023-04-07T14:32:27;16.50;35.50
16823;DHT22;8528;49.976;11.858;2023-04-07T14:34:55;16.80;35.50
16823;DHT22;8528;49.976;11.858;2023-04-07T14:37:24;16.90;35.70
16823;DHT22;8528;49.976;11.858;2023-04-07T14:39:52;16.70;35.40
16823;DHT22;8528;49.976;11.858;2023-04-07T14:42:29;16.20;35.70
16823;DHT22;8528;49.976;11.858;2023-04-07T14:44:56;16.10;36.40
16823;DHT22;8528;49.976;11.858;2023-04-07T14:47:23;16.40;36.40
16823;DHT22;8528;49.976;11.858;2023-04-07T14:49:51;16.60;35.00
16823;DHT22;8528;49.976;11.858;2023-04-07T14:52:19;16.60;35.50
16823;DHT22;8528;49.976;11.858;2023-04-07T14:54:47;16.50;35.50
16823;DHT22;8528;49.976;11.858;2023-04-07T14:57:14;16.20;35.90
16823;DHT22;8528;49.976;11.858;2023-04-07T14:59:42;15.90;35.00
16823;DHT22;8528;49.976;11.858;2023-04-07T15:02:09;15.90;35.50
16823;DHT22;8528;49.976;11.858;2023-04-07T15:04:36;15.80;36.40
16823;DHT22;8528;49.976;11.858;2023-04-07T15:07:03;16.00;37.50
16823;DHT22;8528;49.976;11.858;2023-04-07T15:09:30;15.90;35.00
16823;DHT22;8528;49.976;11.858;2023-04-07T15:11:57;16.00;36.80
16823;DHT22;8528;49.976;11.858;2023-04-07T15:14:26;16.10;38.20
16823;DHT22;8528;49.976;11.858;2023-04-07T15:16:53;16.20;37.70
16823;DHT22;8528;49.976;11.858;2023-04-07T15:19:20;16.20;36.70
16823;DHT22;8528;49.976;11.858;2023-04-07T15:21:47;16.10;36.30
16823;DHT22;8528;49.976;11.858;2023-04-07T15:24:13;16.00;36.90
16823;DHT22;8528;49.976;11.858;2023-04-07T15:26:43;15.80;37.30
16823;DHT22;8528;49.976;11.858;2023-04-07T15:29:09;15.80;36.90
16823;DHT22;8528;49.976;11.858;2023-04-07T15:31:36;15.80;37.10
16823;DHT22;8528;49.976;11.858;2023-04-07T15:34:03;15.70;38.90
16823;DHT22;8528;49.976;11.858;2023-04-07T15:36:31;15.60;40.30
16823;DHT22;8528;49.976;11.858;2023-04-07T15:39:04;15.40;40.50
16823;DHT22;8528;49.976;11.858;2023-04-07T15:41:32;15.10;41.00
16823;DHT22;8528;49.976;11.858;2023-04-07T15:44:00;14.70;39.50
16823;DHT22;8528;49.976;11.858;2023-04-07T15:46:27;14.60;40.40
16823;DHT22;8528;49.976;11.858;2023-04-07T15:48:54;14.60;41.60
16823;DHT22;8528;49.976;11.858;2023-04-07T15:51:21;14.50;42.40
16823;DHT22;8528;49.976;11.858;2023-04-07T15:53:48;14.30;44.20
16823;DHT22;8528;49.976;11.858;2023-04-07T15:56:15;14.20;42.10
16823;DHT22;8528;49.976;11.858;2023-04-07T15:58:42;14.00;43.70